createdAt,value
2018-07-23T00:01:44.433Z,21.50
2018-07-23T00:04:12.900Z,21.50
2018-07-23T00:06:41.318Z,21.50
2018-07-23T00:09:09.821Z,21.30
2018-07-23T00:11:38.313Z,21.20
2018-07-23T00:14:06.789Z,21.20
2018-07-23T00:16:35.205Z,21.20
2018-07-23T00:19:03.621Z,21.10
2018-07-23T00:21:32.074Z,21.10
2018-07-23T00:24:00.498Z,21.10
2018-07-23T00:26:28.963Z,21.00
2018-07-23T00:28:57.381Z,21.10
2018-07-23T00:31:25.829Z,21.00
2018-07-23T00:33:54.262Z,21.00
2018-07-23T00:36:22.724Z,20.90
2018-07-23T00:38:51.141Z,20.80
2018-07-23T00:41:19.598Z,20.80
2018-07-23T00:43:48.287Z,20.80
2018-07-23T00:46:16.760Z,20.80
2018-07-23T00:48:45.188Z,20.80
2018-07-23T00:51:13.678Z,20.70
2018-07-23T00:53:42.101Z,20.70
2018-07-23T00:56:10.539Z,20.60
2018-07-23T00:58:39.006Z,20.60
2018-07-23T01:01:07.469Z,20.60
2018-07-23T01:03:35.925Z,20.70
2018-07-23T01:06:04.428Z,20.50
2018-07-23T01:11:00.982Z,20.40
2018-07-23T01:13:29.392Z,20.40
2018-07-23T01:15:57.850Z,20.40
2018-07-23T01:18:26.296Z,20.40
2018-07-23T01:20:54.749Z,20.40
2018-07-23T01:23:23.201Z,20.40
2018-07-23T01:28:19.769Z,20.40
2018-07-23T01:30:48.218Z,20.40
2018-07-23T01:33:16.648Z,20.30
2018-07-23T01:35:45.061Z,20.30
2018-07-23T01:38:13.497Z,20.40
2018-07-23T01:40:41.917Z,20.30
2018-07-23T01:43:10.364Z,20.20
2018-07-23T01:45:38.772Z,20.20
2018-07-23T01:48:07.257Z,20.10
2018-07-23T01:50:35.678Z,20.00
2018-07-23T01:53:04.199Z,20.00
2018-07-23T01:55:32.640Z,19.90
2018-07-23T01:58:01.087Z,20.00
2018-07-23T02:00:29.544Z,19.90
2018-07-23T02:02:57.984Z,19.90
2018-07-23T02:05:26.416Z,19.90
2018-07-23T02:07:54.845Z,19.90
2018-07-23T02:10:23.297Z,19.90
2018-07-23T02:12:51.749Z,19.90
2018-07-23T02:15:20.156Z,19.80
2018-07-23T02:17:48.625Z,19.80
2018-07-23T02:20:17.055Z,19.70
2018-07-23T02:25:13.580Z,19.70
2018-07-23T02:27:42.057Z,19.70
2018-07-23T02:30:10.499Z,19.60
2018-07-23T02:32:39.049Z,19.70
2018-07-23T02:35:07.570Z,19.70
2018-07-23T02:37:36.041Z,19.60
2018-07-23T02:40:04.944Z,19.60
2018-07-23T02:42:33.388Z,19.60
2018-07-23T02:45:01.811Z,19.50
2018-07-23T02:47:30.288Z,19.50
2018-07-23T02:49:58.766Z,19.60
2018-07-23T02:52:27.217Z,19.50
2018-07-23T02:54:55.664Z,19.40
2018-07-23T02:57:24.088Z,19.40
2018-07-23T02:59:52.667Z,19.40
2018-07-23T03:02:21.127Z,19.50
2018-07-23T03:04:49.560Z,19.60
2018-07-23T03:07:17.980Z,19.40
2018-07-23T03:09:46.409Z,19.30
2018-07-23T03:12:14.874Z,19.30
2018-07-23T03:14:43.580Z,19.30
2018-07-23T03:17:12.009Z,19.30
2018-07-23T03:19:40.469Z,19.40
2018-07-23T03:22:08.909Z,19.70
2018-07-23T03:24:37.326Z,19.70
2018-07-23T03:27:05.781Z,19.80
2018-07-23T03:29:34.236Z,19.60
2018-07-23T03:32:02.681Z,19.50
2018-07-23T03:34:31.133Z,19.60
2018-07-23T03:36:59.572Z,19.50
2018-07-23T03:39:27.994Z,19.40
2018-07-23T03:41:56.431Z,19.40
2018-07-23T03:44:24.861Z,19.40
2018-07-23T03:46:53.306Z,19.30
2018-07-23T03:49:21.736Z,19.30
2018-07-23T03:51:50.188Z,19.30
2018-07-23T03:54:18.633Z,19.20
2018-07-23T03:56:47.077Z,19.20
2018-07-23T03:59:15.577Z,19.20
2018-07-23T04:01:44.039Z,19.20
2018-07-23T04:04:15.647Z,19.30
2018-07-23T04:06:44.942Z,19.40
2018-07-23T04:09:13.418Z,19.30
2018-07-23T04:11:41.959Z,19.40
2018-07-23T04:14:10.402Z,19.50
2018-07-23T04:19:06.988Z,19.40
2018-07-23T04:21:35.457Z,19.30
2018-07-23T04:24:04.006Z,19.50
2018-07-23T04:26:32.437Z,19.50
2018-07-23T04:29:01.033Z,19.50
2018-07-23T04:31:29.476Z,19.50
2018-07-23T04:33:57.947Z,19.60
2018-07-23T04:36:26.394Z,19.60
2018-07-23T04:38:54.841Z,19.60
2018-07-23T04:41:23.285Z,19.60
2018-07-23T04:43:51.742Z,19.80
2018-07-23T04:46:20.295Z,19.90
2018-07-23T04:48:48.709Z,20.00
2018-07-23T04:51:17.154Z,20.10
2018-07-23T04:53:45.628Z,20.30
2018-07-23T04:56:14.064Z,20.40
2018-07-23T04:58:42.485Z,20.50
2018-07-23T05:01:10.965Z,20.50
2018-07-23T05:03:39.380Z,20.50
2018-07-23T05:06:07.865Z,20.60
2018-07-23T05:08:36.377Z,20.60
2018-07-23T05:11:04.867Z,20.60
2018-07-23T05:13:33.369Z,20.70
2018-07-23T05:16:01.855Z,20.70
2018-07-23T05:18:30.327Z,20.70
2018-07-23T05:20:58.785Z,20.60
2018-07-23T05:23:27.236Z,20.40
2018-07-23T05:25:55.677Z,20.40
2018-07-23T05:28:24.173Z,20.60
2018-07-23T05:30:52.647Z,20.90
2018-07-23T05:33:21.138Z,21.30
2018-07-23T05:35:49.624Z,21.60
2018-07-23T05:38:18.095Z,21.80
2018-07-23T05:40:46.556Z,22.30
2018-07-23T05:43:14.997Z,23.30
2018-07-23T05:45:43.472Z,24.30
2018-07-23T05:48:11.927Z,24.90
2018-07-23T05:50:40.403Z,25.60
2018-07-23T05:53:08.861Z,26.20
2018-07-23T05:55:37.330Z,26.70
2018-07-23T05:58:05.788Z,27.00
2018-07-23T06:00:34.233Z,27.40
2018-07-23T06:03:02.710Z,28.00
2018-07-23T06:05:31.168Z,27.60
2018-07-23T06:07:59.645Z,26.70
2018-07-23T06:10:28.107Z,26.20
2018-07-23T06:12:56.593Z,25.90
2018-07-23T06:15:25.056Z,25.30
2018-07-23T06:17:53.554Z,25.30
2018-07-23T06:22:50.161Z,24.80
2018-07-23T06:25:18.748Z,24.50
2018-07-23T06:27:47.206Z,24.50
2018-07-23T06:30:15.700Z,24.50
2018-07-23T06:32:44.920Z,24.30
2018-07-23T06:35:13.397Z,24.10
2018-07-23T06:37:41.953Z,24.10
2018-07-23T06:40:10.373Z,23.80
2018-07-23T06:45:06.972Z,24.00
2018-07-23T06:47:35.399Z,24.00
2018-07-23T06:50:04.021Z,24.00
2018-07-23T06:52:32.462Z,24.00
2018-07-23T06:55:00.933Z,24.10
2018-07-23T06:57:29.415Z,24.10
2018-07-23T06:59:57.865Z,24.20
2018-07-23T07:02:26.309Z,24.30
2018-07-23T07:04:54.738Z,24.20
2018-07-23T07:07:23.166Z,24.20
2018-07-23T07:09:51.609Z,24.10
2018-07-23T07:12:20.100Z,24.10
2018-07-23T07:14:48.541Z,24.30
2018-07-23T07:17:16.996Z,24.40
2018-07-23T07:19:45.498Z,24.50
2018-07-23T07:22:13.914Z,24.70
2018-07-23T07:24:42.414Z,24.80
2018-07-23T07:27:10.891Z,25.20
2018-07-23T07:29:39.329Z,25.50
2018-07-23T07:32:07.962Z,26.00
2018-07-23T07:34:36.438Z,26.80
2018-07-23T07:37:04.977Z,27.90
2018-07-23T07:39:33.427Z,28.20
2018-07-23T07:42:01.913Z,28.70
2018-07-23T07:44:30.380Z,28.70
2018-07-23T07:46:58.853Z,29.00
2018-07-23T07:49:27.305Z,30.00
2018-07-23T07:51:55.781Z,31.30
2018-07-23T07:54:24.206Z,31.70
2018-07-23T07:56:52.886Z,31.30
2018-07-23T07:59:21.320Z,31.10
2018-07-23T08:01:50.001Z,31.30
2018-07-23T08:04:18.441Z,31.70
2018-07-23T08:06:46.940Z,31.40
2018-07-23T08:09:15.396Z,31.50
2018-07-23T08:11:44.929Z,32.10
2018-07-23T08:14:13.389Z,33.30
2018-07-23T08:16:41.854Z,34.40
2018-07-23T08:19:10.336Z,35.00
2018-07-23T08:21:38.779Z,35.70
2018-07-23T08:24:07.258Z,36.00
2018-07-23T08:26:35.711Z,36.40
2018-07-23T08:29:04.225Z,35.50
2018-07-23T08:31:32.709Z,35.60
2018-07-23T08:34:01.205Z,36.10
2018-07-23T08:36:29.669Z,34.40
2018-07-23T08:38:58.240Z,33.30
2018-07-23T08:41:26.727Z,33.60
2018-07-23T08:43:55.208Z,34.90
2018-07-23T08:46:23.677Z,35.90
2018-07-23T08:48:52.159Z,36.20
2018-07-23T08:51:20.721Z,36.70
2018-07-23T08:53:49.118Z,36.20
2018-07-23T08:56:17.609Z,36.40
2018-07-23T08:58:46.052Z,36.80
2018-07-23T09:01:14.493Z,36.60
2018-07-23T09:03:42.926Z,37.00
2018-07-23T09:06:11.402Z,37.80
2018-07-23T09:08:39.896Z,37.30
2018-07-23T09:11:08.317Z,37.30
2018-07-23T09:13:36.762Z,37.80
2018-07-23T09:16:05.213Z,38.00
2018-07-23T09:18:33.681Z,37.50
2018-07-23T09:21:02.122Z,36.80
2018-07-23T09:23:30.573Z,35.70
2018-07-23T09:25:59.016Z,34.50
2018-07-23T09:28:27.481Z,33.60
2018-07-23T09:30:56.495Z,32.80
2018-07-23T09:33:25.556Z,32.60
2018-07-23T09:35:54.445Z,32.60
2018-07-23T09:38:23.456Z,33.10
2018-07-23T09:40:52.521Z,33.10
2018-07-23T09:43:20.989Z,33.60
2018-07-23T09:45:49.438Z,33.70
2018-07-23T09:48:17.981Z,33.80
2018-07-23T09:50:46.444Z,34.40
2018-07-23T09:53:14.973Z,34.00
2018-07-23T09:55:43.424Z,33.80
2018-07-23T09:58:11.874Z,33.80
2018-07-23T10:00:45.620Z,34.00
2018-07-23T10:03:17.170Z,33.90
2018-07-23T10:05:45.561Z,35.00
2018-07-23T10:08:14.021Z,36.00
2018-07-23T10:10:42.453Z,36.00
2018-07-23T10:13:10.947Z,36.50
2018-07-23T10:15:39.397Z,37.00
2018-07-23T10:18:07.861Z,37.00
2018-07-23T10:20:36.316Z,37.10
2018-07-23T10:23:04.828Z,36.20
2018-07-23T10:25:33.398Z,36.20
2018-07-23T10:28:01.857Z,35.70
2018-07-23T10:30:30.297Z,35.30
2018-07-23T10:32:58.761Z,33.70
2018-07-23T10:35:27.257Z,33.50
2018-07-23T10:37:55.743Z,33.60
2018-07-23T10:40:24.183Z,34.50
2018-07-23T10:42:52.677Z,35.10
2018-07-23T10:45:21.141Z,33.60
2018-07-23T10:47:49.598Z,32.90
2018-07-23T10:50:18.165Z,32.60
2018-07-23T10:52:46.676Z,32.20
2018-07-23T10:55:15.171Z,31.80
2018-07-23T10:57:43.731Z,31.60
2018-07-23T11:00:12.233Z,33.50
2018-07-23T11:02:40.690Z,34.70
2018-07-23T11:05:09.849Z,35.10
2018-07-23T11:07:38.328Z,35.30
2018-07-23T11:10:07.808Z,35.20
2018-07-23T11:12:36.498Z,35.40
2018-07-23T11:15:06.704Z,35.30
2018-07-23T11:17:35.836Z,36.00
2018-07-23T11:20:05.123Z,36.40
2018-07-23T11:22:33.691Z,36.60
2018-07-23T11:25:38.220Z,36.60
2018-07-23T11:27:30.709Z,37.00
2018-07-23T11:29:59.187Z,36.10
2018-07-23T11:32:27.676Z,34.90
2018-07-23T11:34:56.248Z,34.00
2018-07-23T11:37:24.719Z,33.30
2018-07-23T11:39:53.196Z,32.20
2018-07-23T11:42:21.660Z,31.40
2018-07-23T11:44:50.135Z,31.50
2018-07-23T11:47:18.649Z,31.40
2018-07-23T11:49:47.092Z,31.50
2018-07-23T11:52:15.534Z,31.70
2018-07-23T11:54:43.990Z,32.00
2018-07-23T11:57:12.498Z,32.30
2018-07-23T11:59:41.032Z,32.10
2018-07-23T12:02:09.529Z,32.20
2018-07-23T12:04:38.223Z,32.10
2018-07-23T12:07:07.232Z,32.30
2018-07-23T12:09:35.721Z,32.40
2018-07-23T12:12:04.185Z,32.80
2018-07-23T12:14:32.649Z,33.60
2018-07-23T12:17:01.080Z,34.10
2018-07-23T12:19:29.563Z,33.60
2018-07-23T12:21:58.037Z,33.40
2018-07-23T12:24:26.496Z,34.10
2018-07-23T12:26:54.957Z,35.10
2018-07-23T12:29:23.428Z,34.90
2018-07-23T12:31:51.937Z,34.60
2018-07-23T12:34:20.409Z,34.40
2018-07-23T12:36:48.875Z,34.20
2018-07-23T12:39:17.374Z,34.60
2018-07-23T12:41:45.819Z,35.10
2018-07-23T12:44:14.306Z,35.80
2018-07-23T12:46:42.740Z,36.00
2018-07-23T12:49:11.201Z,35.90
2018-07-23T12:51:39.657Z,36.30
2018-07-23T12:54:08.137Z,36.90
2018-07-23T12:56:36.585Z,37.10
2018-07-23T12:59:05.072Z,37.20
2018-07-23T13:01:33.531Z,37.40
2018-07-23T13:04:01.997Z,37.40
2018-07-23T13:06:30.472Z,35.80
2018-07-23T13:08:58.949Z,34.10
2018-07-23T13:11:27.438Z,34.20
2018-07-23T13:13:55.902Z,34.00
2018-07-23T13:18:52.461Z,33.60
2018-07-23T13:21:20.924Z,33.50
2018-07-23T13:23:49.389Z,34.10
2018-07-23T13:26:17.855Z,34.70
2018-07-23T13:28:46.330Z,35.40
2018-07-23T13:31:14.774Z,35.50
2018-07-23T13:33:43.210Z,35.50
2018-07-23T13:36:11.737Z,34.90
2018-07-23T13:38:40.190Z,34.50
2018-07-23T13:41:08.664Z,34.40
2018-07-23T13:43:37.250Z,34.00
2018-07-23T13:46:05.696Z,33.70
2018-07-23T13:48:34.177Z,33.80
2018-07-23T13:51:02.750Z,34.00
2018-07-23T13:53:31.231Z,33.60
2018-07-23T13:55:59.781Z,33.70
2018-07-23T13:58:28.274Z,33.70
2018-07-23T14:00:56.758Z,33.70
2018-07-23T14:03:25.265Z,34.00
2018-07-23T14:05:53.757Z,34.00
2018-07-23T14:08:22.232Z,33.90
2018-07-23T14:10:50.716Z,33.00
2018-07-23T14:13:19.188Z,32.70
2018-07-23T14:15:47.652Z,32.90
2018-07-23T14:18:16.190Z,32.80
2018-07-23T14:20:44.683Z,32.60
2018-07-23T14:23:13.181Z,32.40
2018-07-23T14:25:41.633Z,32.10
2018-07-23T14:28:10.073Z,32.50
2018-07-23T14:33:06.717Z,33.00
2018-07-23T14:35:35.153Z,33.00
2018-07-23T14:38:07.005Z,33.30
2018-07-23T14:40:35.450Z,33.60
2018-07-23T14:45:32.168Z,33.90
2018-07-23T14:50:28.889Z,33.70
2018-07-23T14:52:57.448Z,33.40
2018-07-23T14:55:25.910Z,33.30
2018-07-23T14:57:54.855Z,33.00
2018-07-23T15:00:23.452Z,32.90
2018-07-23T15:02:52.027Z,32.70
2018-07-23T15:05:20.579Z,32.60
2018-07-23T15:07:49.089Z,32.60
2018-07-23T15:10:17.573Z,32.20
2018-07-23T15:12:46.041Z,32.10
2018-07-23T15:15:14.503Z,32.20
2018-07-23T15:17:43.129Z,32.10
2018-07-23T15:20:11.612Z,32.30
2018-07-23T15:22:40.128Z,32.30
2018-07-23T15:25:08.615Z,32.20
2018-07-23T15:27:37.918Z,32.10
2018-07-23T15:30:07.349Z,31.70
2018-07-23T15:32:35.762Z,31.60
2018-07-23T15:35:04.537Z,31.60
2018-07-23T15:37:33.005Z,31.90
2018-07-23T15:40:01.482Z,31.60
2018-07-23T15:42:29.926Z,31.60
2018-07-23T15:44:58.821Z,31.60
2018-07-23T15:47:27.032Z,31.60
2018-07-23T15:49:55.498Z,31.70
2018-07-23T15:54:52.171Z,31.60
2018-07-23T15:57:20.612Z,31.30
2018-07-23T15:59:49.053Z,31.20
2018-07-23T16:02:17.475Z,31.10
2018-07-23T16:04:45.916Z,30.90
2018-07-23T16:07:14.368Z,30.80
2018-07-23T16:09:43.018Z,30.40
2018-07-23T16:12:11.501Z,30.40
2018-07-23T16:14:39.937Z,30.30
2018-07-23T16:17:08.694Z,30.50
2018-07-23T16:19:37.150Z,30.60
2018-07-23T16:22:05.692Z,30.70
2018-07-23T16:24:34.159Z,30.80
2018-07-23T16:27:02.618Z,30.80
2018-07-23T16:29:31.085Z,30.90
2018-07-23T16:34:27.806Z,30.90
2018-07-23T16:36:56.269Z,30.80
2018-07-23T16:39:24.730Z,30.60
2018-07-23T16:41:53.270Z,30.50
2018-07-23T16:44:21.721Z,30.50
2018-07-23T16:46:50.246Z,30.50
2018-07-23T16:49:18.666Z,30.50
2018-07-23T16:51:47.157Z,30.60
2018-07-23T16:54:15.638Z,30.70
2018-07-23T16:59:12.213Z,30.50
2018-07-23T17:01:40.661Z,30.40
2018-07-23T17:04:09.155Z,30.40
2018-07-23T17:06:37.642Z,30.50
2018-07-23T17:09:09.321Z,30.50
2018-07-23T17:11:37.897Z,30.60
2018-07-23T17:14:06.674Z,30.60
2018-07-23T17:16:35.492Z,30.50
2018-07-23T17:21:32.203Z,30.30
2018-07-23T17:24:00.670Z,30.30
2018-07-23T17:26:29.133Z,30.30
2018-07-23T17:28:57.653Z,30.30
2018-07-23T17:33:54.340Z,30.40
2018-07-23T17:36:22.831Z,30.50
2018-07-23T17:38:51.280Z,30.50
2018-07-23T17:41:19.775Z,30.50
2018-07-23T17:43:48.242Z,30.30
2018-07-23T17:46:16.700Z,30.20
2018-07-23T17:48:45.138Z,30.00
2018-07-23T17:51:13.580Z,29.90
2018-07-23T17:53:42.017Z,29.80
2018-07-23T17:56:11.352Z,29.70
2018-07-23T17:58:39.821Z,29.70
2018-07-23T18:01:08.253Z,29.50
2018-07-23T18:03:36.722Z,29.40
2018-07-23T18:06:05.222Z,29.20
2018-07-23T18:08:33.673Z,29.10
2018-07-23T18:11:02.150Z,29.10
2018-07-23T18:13:30.638Z,29.00
2018-07-23T18:15:59.072Z,28.90
2018-07-23T18:18:27.541Z,28.90
2018-07-23T18:20:56.576Z,28.80
2018-07-23T18:23:25.077Z,28.70
2018-07-23T18:25:53.592Z,28.60
2018-07-23T18:28:22.301Z,28.50
2018-07-23T18:30:51.486Z,28.50
2018-07-23T18:33:19.944Z,28.40
2018-07-23T18:35:48.426Z,28.40
2018-07-23T18:38:17.941Z,28.40
2018-07-23T18:40:46.377Z,28.30
2018-07-23T18:43:14.837Z,28.20
2018-07-23T18:45:43.401Z,28.10
2018-07-23T18:48:23.179Z,27.90
2018-07-23T18:50:51.635Z,27.90
2018-07-23T18:53:22.036Z,27.80
2018-07-23T18:55:50.498Z,27.70
2018-07-23T19:00:47.101Z,27.60
2018-07-23T19:03:15.561Z,27.60
2018-07-23T19:08:12.724Z,27.40
2018-07-23T19:10:41.189Z,27.30
2018-07-23T19:15:37.728Z,27.20
2018-07-23T19:18:06.232Z,27.20
2018-07-23T19:20:34.796Z,27.10
2018-07-23T19:23:03.438Z,27.00
2018-07-23T19:25:31.918Z,26.90
2018-07-23T19:28:00.381Z,26.80
2018-07-23T19:30:28.800Z,26.70
2018-07-23T19:32:57.271Z,26.70
2018-07-23T19:35:25.724Z,26.60
2018-07-23T19:40:22.331Z,26.50
2018-07-23T19:50:15.313Z,26.40
2018-07-23T19:55:11.920Z,26.30
2018-07-23T19:57:40.407Z,26.20
2018-07-23T20:00:08.941Z,26.10
2018-07-23T20:02:37.420Z,26.00
2018-07-23T20:05:06.028Z,26.00
2018-07-23T20:07:34.440Z,25.90
2018-07-23T20:12:31.027Z,25.90
2018-07-23T20:14:59.648Z,26.00
2018-07-23T20:17:28.130Z,26.00
2018-07-23T20:19:56.676Z,26.00
2018-07-23T20:22:25.197Z,25.90
2018-07-23T20:24:53.667Z,25.80
2018-07-23T20:27:22.125Z,25.80
2018-07-23T20:29:50.586Z,25.70
2018-07-23T20:34:47.240Z,25.50
2018-07-23T20:37:15.819Z,25.50
2018-07-23T20:39:44.292Z,25.40
2018-07-23T20:42:12.796Z,25.40
2018-07-23T20:44:41.381Z,25.40
2018-07-23T20:47:09.757Z,25.40
2018-07-23T20:49:38.205Z,25.30
2018-07-23T20:52:06.748Z,25.40
2018-07-23T20:54:35.214Z,25.40
2018-07-23T20:57:03.747Z,25.40
2018-07-23T20:59:32.204Z,25.40
2018-07-23T21:02:00.765Z,25.30
2018-07-23T21:04:29.234Z,25.20
2018-07-23T21:06:57.674Z,25.10
2018-07-23T21:09:26.177Z,25.00
2018-07-23T21:11:54.633Z,24.90
2018-07-23T21:14:23.117Z,24.90
2018-07-23T21:16:51.635Z,24.90
2018-07-23T21:21:48.249Z,24.80
2018-07-23T21:24:16.742Z,24.70
2018-07-23T21:26:45.196Z,24.60
2018-07-23T21:29:13.701Z,24.50
2018-07-23T21:31:42.200Z,24.30
2018-07-23T21:34:10.679Z,24.20
2018-07-23T21:36:39.134Z,24.20
2018-07-23T21:39:08.842Z,24.30
2018-07-23T21:41:37.379Z,24.40
2018-07-23T21:44:05.889Z,24.40
2018-07-23T21:49:02.565Z,24.30
2018-07-23T21:51:31.167Z,24.30
2018-07-23T21:53:59.735Z,24.20
2018-07-23T21:56:28.829Z,24.20
2018-07-23T21:58:57.464Z,24.10
2018-07-23T22:01:25.944Z,24.10
2018-07-23T22:03:54.488Z,24.00
2018-07-23T22:06:23.642Z,24.00
2018-07-23T22:08:53.837Z,24.00
2018-07-23T22:11:22.382Z,23.90
2018-07-23T22:13:50.857Z,23.80
2018-07-23T22:16:19.384Z,23.70
2018-07-23T22:18:47.884Z,23.60
2018-07-23T22:21:16.401Z,23.60
2018-07-23T22:23:44.931Z,23.60
2018-07-23T22:26:13.388Z,23.50
2018-07-23T22:28:41.844Z,23.40
2018-07-23T22:31:10.345Z,23.50
2018-07-23T22:33:38.778Z,23.50
2018-07-23T22:36:07.277Z,23.50
2018-07-23T22:38:35.802Z,23.40
2018-07-23T22:41:04.308Z,23.40
2018-07-23T22:46:00.902Z,23.40
2018-07-23T22:48:29.372Z,23.30
2018-07-23T22:50:57.889Z,23.30
2018-07-23T22:53:26.352Z,23.20
2018-07-23T22:55:54.832Z,23.10
2018-07-23T22:58:23.263Z,23.10
2018-07-23T23:00:51.721Z,23.10
2018-07-23T23:03:20.156Z,23.00
2018-07-23T23:05:48.710Z,23.00
2018-07-23T23:08:17.172Z,23.00
2018-07-23T23:10:45.737Z,22.90
2018-07-23T23:13:14.241Z,22.80
2018-07-23T23:15:42.772Z,22.70
2018-07-23T23:18:11.213Z,22.70
2018-07-23T23:20:39.685Z,22.60
2018-07-23T23:23:08.161Z,22.50
2018-07-23T23:25:36.669Z,22.50
2018-07-23T23:28:05.259Z,22.40
2018-07-23T23:30:33.724Z,22.40
2018-07-23T23:33:02.220Z,22.30
2018-07-23T23:35:30.682Z,22.20
2018-07-23T23:37:59.129Z,22.20
2018-07-23T23:42:55.689Z,22.10
2018-07-23T23:45:24.126Z,22.00
2018-07-23T23:47:52.628Z,22.00
2018-07-23T23:50:21.057Z,22.00
2018-07-23T23:52:49.505Z,22.00
2018-07-23T23:55:17.937Z,22.00
2018-07-23T23:57:46.393Z,22.00
